Terminal Aerodrome Forecast
Issued by NWS

Home | Current Version | Previous Version | Text Only | Print | Product List | Glossary On
Versions: 1 2 3 4 5 6 7 8 9 10 11 12 13 14 15 16
000
FTPQ31 PGUM 202339
TAFGUM
TAF

TAF
PTRO 202339Z 2100/2124 06011KT 6SM -SHRA VCTS BKN014CB BKN040
      OVC100
      TEMPO 2100/2102 3SM +SHRA OVC015
     FM210200 06011KT P6SM VCSH SCT016 BKN040 OVC120
      TEMPO 2102/2106 6SM SHRA BKN016 OVC040=

USA.gov is the U.S. government's official web portal to all federal, state and local government web resources and services.